Аэропорт: Нижневартовск. Нижневартовск

ICAO: USNN

METAR:
2020-10-19 15:00:00
USNN 191500Z 18004MPS 1200 R21/P2000U SHSN BKN004 BKN014CB 00/M00 Q1006 R21/590731 NOSIG RMK QFE749
METAR:
2020-10-19 14:00:00
TAF USNN 191400Z 1915/2015 18003G08MPS 1200 SHSN BKN004 BKN020CB TEMPO 1915/2006 0300 +SHSN VV002 FM200600 21003G08MPS 9999 BKN017